Time;durP1;ratioP1;P1;durP2;ratioP2;P2;SDS_P1;SDS_P2;PMS_P1;PMS_P2;Temp;Humidity;BMP_temperature;BMP_pressure;BME280_temperature;BME280_humidity;BME280_pressure;Samples;Min_cycle;Max_cycle;Signal;HPM_P1;HPM_P2
2024/04/06 00:01:38;;;;;;;67.13;34.25;;;358.50;2329.60;;;;;;5091091;28;20032;-80
2024/04/06 00:04:05;;;;;;;19.75;7.85;;;358.50;2329.60;;;;;;5090721;28;20458;-70
2024/04/06 00:06:31;;;;;;;133.15;61.35;;;358.40;2329.60;;;;;;5080778;28;20036;-73
2024/04/06 00:08:57;;;;;;;295.58;145.50;;;333.70;2329.60;;;;;;5084772;28;20426;-73
2024/04/06 00:11:23;;;;;;;114.40;53.03;;;333.70;2329.60;;;;;;5080790;28;20413;-71
2024/04/06 00:13:50;;;;;;;10.63;5.40;;;358.40;2329.60;;;;;;5080321;28;20024;-71
2024/04/06 00:16:16;;;;;;;17.05;7.72;;;358.40;2329.60;;;;;;5079400;28;20036;-71
2024/04/06 00:18:41;;;;;;;14.00;5.90;;;358.50;2329.60;;;;;;5081099;28;20035;-71
2024/04/06 00:21:07;;;;;;;10.60;5.22;;;358.40;2329.60;;;;;;5079676;28;20108;-68
2024/04/06 00:23:33;;;;;;;6.07;3.53;;;358.50;2329.60;;;;;;5079430;28;20029;-69
2024/04/06 00:25:59;;;;;;;7.82;3.03;;;358.50;2329.60;;;;;;5077256;28;20662;-68
2024/04/06 00:28:25;;;;;;;14.75;7.00;;;358.40;2329.60;;;;;;5077616;28;20033;-68
2024/04/06 00:30:54;;;;;;;10.38;5.00;;;358.40;2329.60;;;;;;5077729;28;20028;-74
2024/04/06 00:33:20;;;;;;;6.10;3.97;;;358.50;2329.60;;;;;;5078436;28;20050;-69
2024/04/06 00:35:46;;;;;;;11.57;4.13;;;333.70;2329.60;;;;;;5076983;28;20025;-69
2024/04/06 00:38:12;;;;;;;30.40;17.10;;;333.70;2329.60;;;;;;5083701;28;20151;-69
2024/04/06 00:40:38;;;;;;;39.67;20.27;;;333.70;2329.60;;;;;;5072787;28;20040;-68
2024/04/06 00:43:04;;;;;;;9.45;5.05;;;333.60;2329.60;;;;;;5085408;28;20143;-70
2024/04/06 00:45:30;;;;;;;30.23;15.60;;;333.40;2329.60;;;;;;5074268;28;20024;-69
2024/04/06 00:47:56;;;;;;;105.97;59.50;;;333.30;2329.60;;;;;;5069259;28;20016;-70
2024/04/06 00:50:22;;;;;;;51.45;31.90;;;333.40;2329.60;;;;;;5080327;28;20020;-70
2024/04/06 00:52:48;;;;;;;10.88;6.20;;;333.40;2329.60;;;;;;5085921;28;20020;-70
2024/04/06 00:55:14;;;;;;;10.15;5.93;;;333.50;2329.60;;;;;;5081652;28;20077;-70
2024/04/06 00:57:40;;;;;;;24.77;13.68;;;333.50;2329.60;;;;;;5086258;28;20024;-71
2024/04/06 01:00:07;;;;;;;33.45;17.90;;;333.40;2329.60;;;;;;5081915;28;20031;-71
2024/04/06 01:02:33;;;;;;;6.35;3.13;;;333.40;2329.60;;;;;;5086719;28;20084;-74
2024/04/06 01:04:59;;;;;;;9.82;4.68;;;333.40;2329.60;;;;;;5080429;28;20027;-72
2024/04/06 01:07:25;;;;;;;17.00;9.38;;;333.40;2329.60;;;;;;5083492;28;20504;-74
2024/04/06 01:09:51;;;;;;;32.97;22.60;;;333.50;2329.60;;;;;;5078435;28;20405;-72
2024/04/06 01:12:17;;;;;;;5.22;3.17;;;333.50;2329.60;;;;;;5084805;28;20449;-71
2024/04/06 01:14:43;;;;;;;11.82;3.28;;;333.50;2329.60;;;;;;5079411;28;20035;-71
2024/04/06 01:17:10;;;;;;;29.50;17.05;;;333.40;2329.60;;;;;;5084834;28;20024;-71
2024/04/06 01:19:36;;;;;;;9.00;5.05;;;333.30;2329.60;;;;;;5088276;28;20036;-70
2024/04/06 01:22:01;;;;;;;6.70;3.40;;;333.40;2329.60;;;;;;5068287;28;20098;-75
2024/04/06 01:24:31;;;;;;;6.80;3.25;;;333.30;2329.60;;;;;;5070730;28;20104;-70
2024/04/06 01:26:58;;;;;;;7.65;3.13;;;333.30;2329.60;;;;;;5089172;28;20032;-74
2024/04/06 01:29:29;;;;;;;7.95;2.85;;;333.30;2329.60;;;;;;5087233;28;20456;-75
2024/04/06 01:31:56;;;;;;;6.70;3.97;;;333.30;2329.60;;;;;;5086893;28;20078;-76
2024/04/06 01:34:22;;;;;;;14.85;7.60;;;333.30;2329.60;;;;;;5084402;28;20028;-75
2024/04/06 01:36:49;;;;;;;5.65;2.92;;;333.40;2329.60;;;;;;5086339;28;20040;-74
2024/04/06 01:39:15;;;;;;;7.72;3.25;;;333.50;2329.60;;;;;;5084418;28;20034;-76
2024/04/06 01:41:45;;;;;;;5.85;3.03;;;333.30;2329.60;;;;;;5077023;28;20040;-72
2024/04/06 01:44:11;;;;;;;6.63;3.08;;;333.20;2329.60;;;;;;5081259;28;20029;-71
2024/04/06 01:46:37;;;;;;;8.98;3.88;;;333.20;2329.60;;;;;;5071263;28;20033;-73
2024/04/06 01:49:03;;;;;;;5.35;3.22;;;333.20;2329.60;;;;;;5081095;28;20382;-73
2024/04/06 01:51:29;;;;;;;6.25;3.13;;;333.10;2329.60;;;;;;5071314;28;20025;-69
2024/04/06 01:53:55;;;;;;;6.07;2.55;;;333.10;2329.60;;;;;;5080261;28;20021;-72
2024/04/06 01:56:21;;;;;;;7.63;3.08;;;333.10;2329.60;;;;;;5069321;28;20048;-72
2024/04/06 01:58:47;;;;;;;4.90;2.80;;;333.20;2329.60;;;;;;5078309;28;20084;-71
2024/04/06 02:01:14;;;;;;;6.57;3.53;;;333.10;2329.60;;;;;;5072788;28;21308;-68
2024/04/06 02:03:40;;;;;;;5.10;3.15;;;332.80;2329.60;;;;;;5065237;28;20020;-69
2024/04/06 02:06:08;;;;;;;5.57;3.42;;;332.80;2329.60;;;;;;5074954;28;20025;-70
2024/04/06 02:08:35;;;;;;;5.63;3.85;;;308.10;2304.00;;;;;;5069231;28;20060;-71
2024/04/06 02:11:01;;;;;;;11.25;6.18;;;308.10;2304.00;;;;;;5069144;28;20375;-69
2024/04/06 02:13:27;;;;;;;21.92;14.65;;;332.80;2329.60;;;;;;5069647;28;20021;-68
2024/04/06 02:15:54;;;;;;;18.00;12.73;;;332.80;2329.60;;;;;;5070054;28;20027;-69
2024/04/06 02:18:20;;;;;;;9.70;7.65;;;332.80;2329.60;;;;;;5077749;28;20093;-69
2024/04/06 02:20:46;;;;;;;9.52;7.85;;;308.10;2304.00;;;;;;5087818;28;20028;-69
2024/04/06 02:23:12;;;;;;;12.07;9.15;;;332.80;2329.60;;;;;;5088534;28;20055;-70
2024/04/06 02:25:38;;;;;;;14.73;10.77;;;332.80;2329.60;;;;;;5088141;28;20066;-70
2024/04/06 02:28:04;;;;;;;23.63;14.43;;;332.80;2329.60;;;;;;5089013;28;20055;-70
2024/04/06 02:30:31;;;;;;;27.20;17.20;;;332.80;2329.60;;;;;;5087962;28;20038;-70
2024/04/06 02:32:57;;;;;;;14.60;7.85;;;332.80;2329.60;;;;;;5088322;28;20085;-69
2024/04/06 02:35:24;;;;;;;18.35;10.18;;;308.10;2304.00;;;;;;5087633;28;20017;-70
2024/04/06 02:37:50;;;;;;;12.75;7.10;;;308.10;2304.00;;;;;;5087910;28;20056;-69
2024/04/06 02:40:16;;;;;;;9.30;5.32;;;308.00;2304.00;;;;;;5087883;28;20028;-69
2024/04/06 02:42:41;;;;;;;6.55;3.72;;;308.10;2304.00;;;;;;5088228;28;20428;-69
2024/04/06 02:45:07;;;;;;;7.90;4.00;;;332.80;2329.60;;;;;;5088108;28;20020;-70
2024/04/06 02:47:34;;;;;;;9.63;3.63;;;332.90;2329.60;;;;;;5088856;28;20077;-69
2024/04/06 02:50:00;;;;;;;6.97;2.83;;;332.90;2329.60;;;;;;5087741;28;20442;-70
2024/04/06 02:52:26;;;;;;;9.27;4.88;;;332.90;2329.60;;;;;;5088717;28;20031;-70
2024/04/06 02:54:51;;;;;;;5.60;3.17;;;332.90;2329.60;;;;;;5087889;28;20457;-70
2024/04/06 02:57:20;;;;;;;8.15;4.65;;;332.90;2329.60;;;;;;5088817;28;20081;-70
2024/04/06 02:59:47;;;;;;;9.00;4.45;;;332.90;2329.60;;;;;;5087714;28;20057;-69
2024/04/06 03:02:13;;;;;;;12.02;3.38;;;332.80;2329.60;;;;;;5088720;28;20028;-72
2024/04/06 03:04:40;;;;;;;5.28;3.08;;;332.80;2329.60;;;;;;5087035;28;20161;-72
2024/04/06 03:07:06;;;;;;;10.85;4.88;;;332.80;2329.60;;;;;;5088228;28;20032;-74
2024/04/06 03:09:35;;;;;;;8.38;4.60;;;332.80;2329.60;;;;;;5087752;28;20028;-70
2024/04/06 03:12:02;;;;;;;8.45;4.45;;;308.00;2304.00;;;;;;5088456;28;20054;-71
2024/04/06 03:14:29;;;;;;;4.20;2.58;;;307.80;2304.00;;;;;;5087313;28;20419;-72
2024/04/06 03:16:54;;;;;;;5.85;2.95;;;307.80;2304.00;;;;;;5088278;28;20107;-72
2024/04/06 03:19:20;;;;;;;5.40;3.25;;;307.80;2304.00;;;;;;5087499;28;20115;-74
2024/04/06 03:21:46;;;;;;;4.88;2.92;;;307.80;2304.00;;;;;;5088376;28;20024;-72
2024/04/06 03:24:12;;;;;;;6.43;3.28;;;307.80;2304.00;;;;;;5087202;28;20322;-75
2024/04/06 03:26:39;;;;;;;5.22;3.40;;;307.80;2304.00;;;;;;5072247;28;20037;-71
2024/04/06 03:29:05;;;;;;;5.00;3.03;;;307.80;2304.00;;;;;;5070245;28;20016;-69
2024/04/06 03:31:31;;;;;;;8.02;3.25;;;308.00;2304.00;;;;;;5088448;28;20050;-75
2024/04/06 03:33:57;;;;;;;4.82;2.80;;;308.10;2304.00;;;;;;5087180;28;20097;-75
2024/04/06 03:36:22;;;;;;;5.45;3.00;;;307.80;2304.00;;;;;;5087845;28;20535;-70
2024/04/06 03:38:48;;;;;;;4.15;2.60;;;307.80;2304.00;;;;;;5086914;28;20040;-77
2024/04/06 03:41:14;;;;;;;7.00;3.40;;;307.80;2304.00;;;;;;5088348;28;20043;-73
2024/04/06 03:43:40;;;;;;;10.02;3.38;;;307.70;2304.00;;;;;;5087331;28;20035;-72
2024/04/06 03:46:06;;;;;;;3.97;2.60;;;307.80;2304.00;;;;;;5090954;28;20020;-77
2024/04/06 03:48:32;;;;;;;7.07;2.70;;;307.80;2304.00;;;;;;5090698;28;20021;-71
2024/04/06 03:50:58;;;;;;;6.75;3.30;;;307.80;2304.00;;;;;;5091582;28;20126;-70
2024/04/06 03:53:32;;;;;;;5.00;3.35;;;307.90;2304.00;;;;;;5091321;28;20059;-71
2024/04/06 03:55:58;;;;;;;7.60;3.63;;;307.70;2304.00;;;;;;5091566;28;20107;-71
2024/04/06 03:58:24;;;;;;;7.88;4.00;;;307.70;2304.00;;;;;;5090450;28;20024;-70
2024/04/06 04:00:50;;;;;;;5.82;3.15;;;307.80;2304.00;;;;;;5091787;28;20549;-71
2024/04/06 04:03:16;;;;;;;5.85;3.00;;;307.80;2304.00;;;;;;5086093;28;20536;-72
2024/04/06 04:05:42;;;;;;;9.00;2.88;;;307.90;2304.00;;;;;;5087184;28;20032;-75
2024/04/06 04:08:07;;;;;;;6.32;2.72;;;308.00;2304.00;;;;;;5091134;28;20068;-78
2024/04/06 04:10:36;;;;;;;12.13;3.20;;;332.80;2329.60;;;;;;5091026;28;20024;-70
2024/04/06 04:13:02;;;;;;;5.68;2.60;;;332.90;2329.60;;;;;;5090762;28;20103;-73
2024/04/06 04:15:29;;;;;;;6.18;3.03;;;333.20;2329.60;;;;;;5091281;28;20022;-71
2024/04/06 04:17:54;;;;;;;7.40;2.70;;;333.40;2329.60;;;;;;5090897;28;20043;-71
2024/04/06 04:20:20;;;;;;;4.10;2.40;;;333.50;2329.60;;;;;;5090902;28;20012;-73
2024/04/06 04:22:46;;;;;;;6.63;2.50;;;333.70;2329.60;;;;;;5078276;28;20470;-74
2024/04/06 04:25:14;;;;;;;4.95;3.42;;;358.40;2329.60;;;;;;5088768;28;20032;-70
2024/04/06 04:27:40;;;;;;;5.75;2.80;;;358.50;2329.60;;;;;;5090236;28;20020;-71
2024/04/06 04:30:07;;;;;;;7.15;2.78;;;358.80;2329.60;;;;;;5090723;28;20027;-70
2024/04/06 04:32:33;;;;;;;6.47;3.10;;;358.90;2329.60;;;;;;5089262;28;20470;-75
2024/04/06 04:34:58;;;;;;;6.15;2.85;;;358.90;2329.60;;;;;;5090344;28;20023;-70
2024/04/06 04:37:24;;;;;;;6.75;3.20;;;359.00;2329.60;;;;;;5089993;28;20056;-77
2024/04/06 04:39:50;;;;;;;7.85;3.67;;;359.20;2329.60;;;;;;5088781;28;20036;-76
2024/04/06 04:42:16;;;;;;;11.07;3.60;;;359.30;2329.60;;;;;;5090488;28;20047;-70
2024/04/06 04:44:42;;;;;;;7.25;3.35;;;359.30;2329.60;;;;;;5090557;28;20470;-70
2024/04/06 04:47:07;;;;;;;7.45;3.50;;;384.10;2329.60;;;;;;5090198;28;20022;-70
2024/04/06 04:49:33;;;;;;;6.88;3.47;;;384.20;2329.60;;;;;;5090467;28;20024;-70
2024/04/06 04:51:59;;;;;;;6.95;3.35;;;384.40;2329.60;;;;;;5089249;28;20042;-70
2024/04/06 04:54:25;;;;;;;12.90;4.20;;;384.50;2329.60;;;;;;5090297;28;20111;-70
2024/04/06 04:56:51;;;;;;;8.85;4.47;;;384.70;2329.60;;;;;;5089797;28;20408;-70
2024/04/06 04:59:16;;;;;;;7.28;3.83;;;384.90;2329.60;;;;;;5089914;28;20032;-70
2024/04/06 05:01:42;;;;;;;18.20;3.67;;;409.70;2355.20;;;;;;5089178;28;20032;-70
2024/04/06 05:04:08;;;;;;;9.15;3.25;;;409.80;2355.20;;;;;;5089773;28;20039;-71
2024/04/06 05:06:34;;;;;;;8.05;2.75;;;410.00;2355.20;;;;;;5088991;28;20103;-70
2024/04/06 05:09:00;;;;;;;6.72;3.53;;;410.20;2355.20;;;;;;5089383;28;20111;-70
2024/04/06 05:11:25;;;;;;;4.82;2.88;;;410.40;2355.20;;;;;;5090157;28;20023;-70
2024/04/06 05:13:51;;;;;;;8.10;3.22;;;435.50;2355.20;;;;;;5089429;28;20023;-70
2024/04/06 05:16:17;;;;;;;8.20;3.65;;;435.70;2355.20;;;;;;5090194;28;20012;-71
2024/04/06 05:18:43;;;;;;;7.28;3.33;;;435.90;2355.20;;;;;;5089650;28;20043;-70
2024/04/06 05:21:09;;;;;;;5.95;3.00;;;461.00;2380.80;;;;;;5089392;28;20016;-70
2024/04/06 05:23:35;;;;;;;6.45;2.78;;;461.40;2355.20;;;;;;5089566;28;20073;-70
2024/04/06 05:26:01;;;;;;;6.07;3.03;;;460.80;2380.80;;;;;;5089263;28;20020;-70
2024/04/06 05:28:27;;;;;;;7.47;3.20;;;435.70;2355.20;;;;;;5089533;28;20024;-70
2024/04/06 05:30:53;;;;;;;5.82;3.10;;;435.60;2355.20;;;;;;5089855;28;20031;-71
2024/04/06 05:33:20;;;;;;;4.10;2.60;;;460.90;2380.80;;;;;;5089317;28;20025;-70
2024/04/06 05:35:48;;;;;;;6.65;3.28;;;461.00;2380.80;;;;;;5089369;28;20028;-70
2024/04/06 05:38:15;;;;;;;7.10;3.08;;;461.20;2355.20;;;;;;5088561;28;20059;-70
2024/04/06 05:40:43;;;;;;;5.55;2.90;;;461.50;2355.20;;;;;;5088432;28;20111;-69
2024/04/06 05:43:09;;;;;;;10.38;3.63;;;461.70;2304.00;;;;;;5088506;28;20081;-70
2024/04/06 05:45:39;;;;;;;6.60;3.40;;;487.00;2227.20;;;;;;5089477;28;20107;-70
2024/04/06 05:48:06;;;;;;;7.50;2.97;;;537.80;2124.80;;;;;;5089525;28;20101;-71
2024/04/06 05:50:44;;;;;;;7.28;3.47;;;563.30;2022.40;;;;;;5062937;28;20103;-71
2024/04/06 05:53:10;;;;;;;11.20;3.58;;;563.50;2022.40;;;;;;5088516;28;20103;-71
2024/04/06 05:55:36;;;;;;;9.18;3.47;;;563.70;1996.80;;;;;;5089357;28;20533;-70
2024/04/06 05:58:03;;;;;;;4.75;3.17;;;563.80;1971.20;;;;;;5088611;28;20040;-70
2024/04/06 06:00:29;;;;;;;6.72;3.55;;;564.10;1945.60;;;;;;5089565;28;20070;-70
2024/04/06 06:02:56;;;;;;;8.27;3.65;;;564.10;1945.60;;;;;;5088537;28;20467;-70
2024/04/06 06:05:22;;;;;;;12.65;3.85;;;588.90;1920.00;;;;;;5088939;28;20478;-71
2024/04/06 06:07:48;;;;;;;8.25;4.10;;;564.10;1945.60;;;;;;5087933;28;20391;-71
2024/04/06 06:10:15;;;;;;;9.88;3.97;;;589.00;1920.00;;;;;;5089210;28;20016;-70
2024/04/06 06:12:41;;;;;;;5.65;3.95;;;589.30;1894.40;;;;;;5088377;28;20034;-71
2024/04/06 06:15:07;;;;;;;7.10;4.43;;;614.40;1843.20;;;;;;5079615;28;20028;-73
2024/04/06 06:17:33;;;;;;;6.60;4.18;;;615.00;1817.60;;;;;;5085218;28;20023;-79
2024/04/06 06:19:59;;;;;;;9.73;4.03;;;640.90;1740.80;;;;;;5087283;28;20557;-78
2024/04/06 06:22:25;;;;;;;12.02;4.22;;;640.40;1715.20;;;;;;5083270;28;20028;-74
2024/04/06 06:24:51;;;;;;;7.07;4.13;;;665.60;1715.20;;;;;;5087164;28;20123;-73
2024/04/06 06:27:17;;;;;;;8.60;3.85;;;666.50;1664.00;;;;;;5088762;28;20074;-72
2024/04/06 06:29:43;;;;;;;5.90;3.72;;;691.90;1587.20;;;;;;5088825;28;20035;-72
2024/04/06 06:32:09;;;;;;;6.45;4.95;;;691.90;1587.20;;;;;;5088784;28;20043;-72
2024/04/06 06:34:35;;;;;;;6.07;3.83;;;691.60;1612.80;;;;;;5088754;28;20378;-71
2024/04/06 06:37:00;;;;;;;6.22;3.95;;;691.90;1587.20;;;;;;5088110;28;20470;-71
2024/04/06 06:39:26;;;;;;;6.55;3.42;;;691.20;1612.80;;;;;;5088511;28;20020;-71
2024/04/06 06:41:52;;;;;;;9.45;4.28;;;665.80;1664.00;;;;;;5087948;28;20470;-71
2024/04/06 06:44:18;;;;;;;7.00;3.90;;;640.90;1664.00;;;;;;5088589;28;20051;-71
2024/04/06 06:46:44;;;;;;;7.38;4.53;;;691.30;1612.80;;;;;;5087616;28;20136;-78
2024/04/06 06:49:10;;;;;;;7.78;4.70;;;691.80;1587.20;;;;;;5088720;28;20028;-71
2024/04/06 06:51:37;;;;;;;10.60;5.43;;;692.10;1561.60;;;;;;5088005;28;20020;-71
2024/04/06 06:54:03;;;;;;;6.80;5.43;;;742.50;1561.60;;;;;;5088450;28;20069;-72
2024/04/06 06:56:29;;;;;;;6.45;5.22;;;768.10;1484.80;;;;;;5087918;28;20027;-72
2024/04/06 06:58:55;;;;;;;7.32;4.60;;;793.80;1459.20;;;;;;5088676;28;20110;-72
2024/04/06 07:01:22;;;;;;;9.35;5.88;;;794.50;1408.00;;;;;;5087801;28;20055;-71
2024/04/06 07:03:48;;;;;;;7.00;5.18;;;844.90;1382.40;;;;;;5088440;28;20020;-71
2024/04/06 07:06:14;;;;;;;8.05;4.70;;;845.40;1356.80;;;;;;5087882;28;20111;-71
2024/04/06 07:08:41;;;;;;;9.90;5.32;;;845.20;1356.80;;;;;;5087845;28;20412;-72
2024/04/06 07:11:09;;;;;;;6.78;5.35;;;871.10;1305.60;;;;;;5088097;28;20024;-72
2024/04/06 07:13:35;;;;;;;8.88;6.15;;;896.90;1228.80;;;;;;5088122;28;20047;-72
2024/04/06 07:16:04;;;;;;;11.68;6.90;;;921.90;1228.80;;;;;;5077518;28;20035;-72
2024/04/06 07:18:30;;;;;;;17.13;9.52;;;896.50;1228.80;;;;;;5084437;28;20119;-72
2024/04/06 07:20:57;;;;;;;11.02;9.68;;;896.50;1228.80;;;;;;5085373;28;20493;-81
2024/04/06 07:23:23;;;;;;;11.80;9.07;;;922.50;1203.20;;;;;;5086884;28;20047;-80
2024/04/06 07:25:49;;;;;;;9.73;8.77;;;947.60;1177.60;;;;;;5091618;28;20027;-80
2024/04/06 07:28:16;;;;;;;9.90;7.32;;;948.00;1177.60;;;;;;5091145;28;20028;-80
2024/04/06 07:30:43;;;;;;;12.82;7.45;;;973.20;1152.00;;;;;;5091710;28;20024;-79
2024/04/06 07:33:09;;;;;;;9.05;7.07;;;973.30;1126.40;;;;;;5092161;28;20466;-80
2024/04/06 07:35:35;;;;;;;11.30;7.35;;;973.40;1126.40;;;;;;5091861;28;20485;-79
2024/04/06 07:38:01;;;;;;;10.43;8.05;;;973.50;1126.40;;;;;;5090568;28;20055;-80
2024/04/06 07:40:27;;;;;;;12.77;7.22;;;998.40;1126.40;;;;;;5091769;28;20418;-79
2024/04/06 07:42:53;;;;;;;7.45;6.75;;;998.80;1100.80;;;;;;5092200;28;20170;-80
2024/04/06 07:45:19;;;;;;;18.63;8.98;;;998.70;1075.20;;;;;;5087631;28;20101;-79
2024/04/06 07:47:45;;;;;;;9.63;8.05;;;999.10;1075.20;;;;;;5079965;28;20028;-76
2024/04/06 07:50:11;;;;;;;10.45;7.50;;;999.00;1049.60;;;;;;5091448;28;20194;-79
2024/04/06 07:52:37;;;;;;;8.50;7.43;;;998.60;1075.20;;;;;;5091582;28;20041;-80
2024/04/06 07:55:03;;;;;;;8.95;7.50;;;998.60;1075.20;;;;;;5088187;28;20099;-83
2024/04/06 07:57:29;;;;;;;10.15;7.80;;;998.80;1075.20;;;;;;5080087;28;20501;-80
2024/04/06 07:59:56;;;;;;;14.30;7.55;;;1024.70;998.40;;;;;;5089215;28;20478;-79
2024/04/06 08:02:25;;;;;;;8.18;7.22;;;1049.70;1024.00;;;;;;5091136;28;20377;-80
2024/04/06 08:04:55;;;;;;;8.85;6.72;;;1050.40;972.80;;;;;;5091544;28;20027;-80
2024/04/06 08:07:22;;;;;;;9.68;7.53;;;1075.70;947.20;;;;;;5089865;28;20568;-80
2024/04/06 08:09:48;;;;;;;8.32;7.53;;;1050.50;972.80;;;;;;5089619;28;20032;-81
2024/04/06 08:12:14;;;;;;;8.07;7.35;;;1075.20;972.80;;;;;;5090626;28;20018;-81
2024/04/06 08:14:40;;;;;;;10.93;7.90;;;1049.60;998.40;;;;;;5079287;28;20025;-81
2024/04/06 08:17:05;;;;;;;9.13;8.23;;;1050.10;972.80;;;;;;5089479;28;20024;-80
2024/04/06 08:19:31;;;;;;;11.93;8.27;;;1024.90;972.80;;;;;;5091212;28;20042;-78
2024/04/06 08:21:57;;;;;;;9.65;7.82;;;1050.20;972.80;;;;;;5085259;28;20029;-76
2024/04/06 08:24:23;;;;;;;9.68;8.10;;;1049.60;998.40;;;;;;5086668;28;20020;-77
2024/04/06 08:26:49;;;;;;;13.02;7.43;;;1075.40;972.80;;;;;;5088395;28;20032;-78
2024/04/06 08:29:15;;;;;;;8.85;7.13;;;998.60;1024.00;;;;;;5086253;28;20035;-77
2024/04/06 08:31:41;;;;;;;8.40;7.30;;;1024.90;947.20;;;;;;5078318;28;20029;-77
2024/04/06 08:34:08;;;;;;;12.60;7.50;;;1075.50;947.20;;;;;;5089309;28;20020;-77
2024/04/06 08:36:35;;;;;;;8.82;6.72;;;1076.10;921.60;;;;;;5082418;28;20032;-75
2024/04/06 08:39:04;;;;;;;8.75;6.63;;;1050.20;972.80;;;;;;5078927;28;20344;-77
2024/04/06 08:41:30;;;;;;;12.38;8.43;;;998.50;1024.00;;;;;;5083210;28;20028;-76
2024/04/06 08:43:58;;;;;;;7.13;6.43;;;998.60;1024.00;;;;;;5090820;28;20024;-76
2024/04/06 08:46:24;;;;;;;10.60;5.55;;;972.90;1024.00;;;;;;5090404;28;20097;-76
2024/04/06 08:48:50;;;;;;;10.52;6.55;;;947.20;1049.60;;;;;;5083876;28;20060;-77
2024/04/06 08:51:24;;;;;;;8.10;6.15;;;922.10;1075.20;;;;;;5088342;28;20151;-77
2024/04/06 08:53:51;;;;;;;10.10;5.88;;;896.10;1075.20;;;;;;5090144;28;20020;-76
2024/04/06 08:56:16;;;;;;;8.02;5.75;;;845.70;1152.00;;;;;;5090322;28;20520;-76
2024/04/06 08:58:43;;;;;;;10.43;4.75;;;844.80;1203.20;;;;;;5090064;28;20032;-76
2024/04/06 09:01:11;;;;;;;10.63;5.50;;;819.20;1203.20;;;;;;5089727;28;20020;-76
2024/04/06 09:03:37;;;;;;;10.15;4.95;;;794.30;1228.80;;;;;;5089322;28;20028;-78
2024/04/06 09:06:03;;;;;;;8.48;5.07;;;768.60;1228.80;;;;;;5089994;28;20016;-76
2024/04/06 09:08:29;;;;;;;7.22;4.65;;;743.30;1305.60;;;;;;5089900;28;20028;-76
2024/04/06 09:10:58;;;;;;;9.93;5.43;;;742.90;1305.60;;;;;;5089701;28;20887;-76
2024/04/06 09:13:28;;;;;;;6.90;4.72;;;742.40;1331.20;;;;;;5089036;28;20032;-76
2024/04/06 09:15:54;;;;;;;8.32;5.20;;;742.50;1305.60;;;;;;5090229;28;20024;-76
2024/04/06 09:18:20;;;;;;;8.77;4.75;;;717.20;1331.20;;;;;;5089693;28;20077;-76
2024/04/06 09:20:52;;;;;;;7.35;4.20;;;717.30;1331.20;;;;;;5089778;28;20035;-77
2024/04/06 09:23:19;;;;;;;7.55;4.47;;;716.80;1356.80;;;;;;5080584;28;20064;-78
2024/04/06 09:25:45;;;;;;;8.45;4.82;;;691.80;1356.80;;;;;;5085377;28;20055;-77
2024/04/06 09:28:13;;;;;;;10.10;5.15;;;716.80;1382.40;;;;;;5058413;28;20059;-75
2024/04/06 09:30:44;;;;;;;13.30;4.97;;;717.10;1382.40;;;;;;5071301;28;20051;-75
2024/04/06 09:33:11;;;;;;;7.15;5.10;;;716.90;1356.80;;;;;;5073589;28;20466;-76
2024/04/06 09:35:41;;;;;;;7.53;5.13;;;717.20;1356.80;;;;;;5061832;28;20021;-75
2024/04/06 09:38:16;;;;;;;9.60;5.25;;;692.10;1331.20;;;;;;5057616;28;20094;-74
2024/04/06 09:40:47;;;;;;;13.15;5.38;;;692.10;1331.20;;;;;;5069801;28;20089;-77
2024/04/06 09:43:14;;;;;;;9.05;5.53;;;692.00;1356.80;;;;;;5079810;28;20085;-77
2024/04/06 09:45:41;;;;;;;13.45;4.95;;;716.80;1356.80;;;;;;5089078;28;20004;-78
2024/04/06 09:48:09;;;;;;;8.00;4.88;;;717.00;1356.80;;;;;;5089004;28;20073;-77
2024/04/06 09:50:38;;;;;;;9.45;5.03;;;717.10;1382.40;;;;;;5089443;28;20016;-77
2024/04/06 09:53:08;;;;;;;8.27;5.38;;;717.00;1356.80;;;;;;5089233;28;20028;-77
2024/04/06 09:55:41;;;;;;;7.75;5.15;;;717.10;1382.40;;;;;;5088558;28;20024;-80
2024/04/06 09:58:08;;;;;;;9.65;4.80;;;691.60;1356.80;;;;;;5079389;28;20029;-77
2024/04/06 10:00:35;;;;;;;5.95;4.85;;;692.00;1356.80;;;;;;5082020;28;20016;-74
2024/04/06 10:03:01;;;;;;;8.68;5.65;;;692.10;1382.40;;;;;;5086725;28;20458;-75
2024/04/06 10:05:44;;;;;;;7.85;5.22;;;716.80;1433.60;;;;;;5088717;28;20032;-75
2024/04/06 10:08:15;;;;;;;7.15;5.00;;;692.10;1408.00;;;;;;5088556;28;20075;-76
2024/04/06 10:10:45;;;;;;;8.43;5.13;;;691.90;1382.40;;;;;;5088869;28;20032;-76
2024/04/06 10:13:18;;;;;;;11.57;6.35;;;691.70;1382.40;;;;;;5088477;28;20031;-75
2024/04/06 10:15:44;;;;;;;9.68;5.90;;;691.90;1382.40;;;;;;5089214;28;20024;-75
2024/04/06 10:18:10;;;;;;;7.55;5.43;;;691.80;1382.40;;;;;;5069910;28;20405;-76
2024/04/06 10:20:40;;;;;;;8.50;5.32;;;691.30;1408.00;;;;;;5064048;28;20095;-76
2024/04/06 10:23:06;;;;;;;7.95;5.20;;;666.50;1408.00;;;;;;5073875;28;20020;-76
2024/04/06 10:25:37;;;;;;;7.55;4.82;;;691.30;1408.00;;;;;;5069079;28;20071;-75
2024/04/06 10:28:04;;;;;;;8.02;5.28;;;691.60;1433.60;;;;;;5070747;28;20074;-76
2024/04/06 10:30:39;;;;;;;9.13;5.88;;;691.60;1382.40;;;;;;5064168;28;20020;-76
2024/04/06 10:33:06;;;;;;;12.50;5.93;;;666.40;1433.60;;;;;;5064693;28;20397;-77
2024/04/06 10:35:33;;;;;;;8.05;5.28;;;691.60;1382.40;;;;;;5069176;28;20021;-75
2024/04/06 10:37:59;;;;;;;8.20;5.45;;;691.20;1408.00;;;;;;5061315;28;20084;-77
2024/04/06 10:40:33;;;;;;;8.57;5.45;;;666.50;1408.00;;;;;;5059763;28;20644;-76
2024/04/06 10:43:00;;;;;;;9.18;5.18;;;691.40;1408.00;;;;;;5061065;28;20025;-76
2024/04/06 10:45:26;;;;;;;9.40;5.30;;;691.60;1433.60;;;;;;5062795;28;20016;-76
2024/04/06 10:47:52;;;;;;;7.68;5.25;;;691.40;1408.00;;;;;;5063523;28;20029;-75
2024/04/06 10:50:18;;;;;;;11.05;5.80;;;691.70;1433.60;;;;;;5060513;28;20017;-77
2024/04/06 10:52:47;;;;;;;8.00;5.35;;;691.80;1459.20;;;;;;5080890;28;20036;-76
2024/04/06 10:55:20;;;;;;;8.57;4.82;;;691.80;1408.00;;;;;;5063245;28;20017;-76
2024/04/06 10:57:46;;;;;;;8.27;4.93;;;691.60;1408.00;;;;;;5071868;28;20039;-76
2024/04/06 11:00:15;;;;;;;9.50;5.18;;;691.40;1408.00;;;;;;5065117;28;20102;-76
2024/04/06 11:02:42;;;;;;;11.18;4.93;;;691.20;1433.60;;;;;;5067982;28;20025;-76
2024/04/06 11:05:11;;;;;;;18.52;7.57;;;691.30;1433.60;;;;;;5074842;28;20027;-75
2024/04/06 11:07:41;;;;;;;7.18;4.45;;;691.70;1408.00;;;;;;5062917;28;20033;-75
2024/04/06 11:10:09;;;;;;;9.18;4.75;;;691.60;1382.40;;;;;;5077138;28;20640;-77
2024/04/06 11:12:41;;;;;;;6.60;4.32;;;691.70;1382.40;;;;;;5071547;28;20013;-76
2024/04/06 11:15:09;;;;;;;10.30;5.25;;;691.80;1382.40;;;;;;5092100;28;20362;-80
2024/04/06 11:17:35;;;;;;;6.20;4.20;;;691.80;1382.40;;;;;;5087344;28;20039;-82
2024/04/06 11:20:04;;;;;;;5.88;4.57;;;692.10;1382.40;;;;;;5078985;28;20724;-80
2024/04/06 11:22:37;;;;;;;5.63;4.55;;;716.80;1433.60;;;;;;5068526;28;20020;-84
2024/04/06 11:25:03;;;;;;;10.20;4.43;;;692.10;1356.80;;;;;;5064941;28;20025;-82
2024/04/06 11:27:29;;;;;;;5.72;4.03;;;691.70;1356.80;;;;;;5075307;28;20070;-79
2024/04/06 11:29:58;;;;;;;7.57;3.97;;;692.10;1356.80;;;;;;5077585;28;20041;-77
2024/04/06 11:32:24;;;;;;;7.03;4.05;;;691.80;1356.80;;;;;;5068635;28;20111;-78
2024/04/06 11:34:52;;;;;;;8.98;3.80;;;692.10;1356.80;;;;;;5072852;28;20028;-77
2024/04/06 11:37:20;;;;;;;7.88;4.22;;;716.80;1356.80;;;;;;5057773;28;20457;-78
2024/04/06 11:39:48;;;;;;;5.97;3.72;;;717.00;1382.40;;;;;;5063889;28;20045;-76
2024/04/06 11:42:14;;;;;;;7.68;4.88;;;716.80;1331.20;;;;;;5069926;28;20110;-77
2024/04/06 11:44:41;;;;;;;5.60;3.83;;;716.80;1331.20;;;;;;5076378;28;20028;-82
2024/04/06 11:47:08;;;;;;;6.20;4.10;;;716.90;1331.20;;;;;;5083126;28;20029;-80
2024/04/06 11:49:33;;;;;;;7.72;4.55;;;717.00;1356.80;;;;;;5072356;28;20093;-81
2024/04/06 11:51:59;;;;;;;6.85;3.88;;;717.00;1382.40;;;;;;5070275;28;20052;-83
2024/04/06 11:54:25;;;;;;;14.80;4.78;;;716.90;1356.80;;;;;;5059241;28;20039;-81
2024/04/06 11:56:52;;;;;;;6.90;4.68;;;716.80;1356.80;;;;;;5074893;28;20032;-78
2024/04/06 11:59:18;;;;;;;8.57;4.18;;;716.80;1382.40;;;;;;5072803;28;20093;-80
2024/04/06 12:01:44;;;;;;;5.53;4.10;;;716.90;1433.60;;;;;;5076094;28;20025;-84
2024/04/06 12:04:11;;;;;;;8.45;4.47;;;717.00;1382.40;;;;;;5070395;28;20024;-83
2024/04/06 12:06:37;;;;;;;8.77;5.00;;;717.00;1408.00;;;;;;5070575;28;20024;-82
2024/04/06 12:09:06;;;;;;;10.73;4.57;;;692.10;1382.40;;;;;;5071774;28;20099;-81
2024/04/06 12:11:32;;;;;;;6.05;4.25;;;716.80;1433.60;;;;;;5074125;28;20097;-81